Time;durP1;ratioP1;P1;durP2;ratioP2;P2;SDS_P1;SDS_P2;PMS_P1;PMS_P2;Temp;Humidity;BMP_temperature;BMP_pressure;BME280_temperature;BME280_humidity;BME280_pressure;Samples;Min_cycle;Max_cycle;Signal;HPM_P1;HPM_P2
2022/11/28 00:01:35;;;;;;;1.80;1.23;;;;;;;16.60;47.96;100793.44;4959540;28;20122;-61
2022/11/28 00:04:02;;;;;;;3.72;1.65;;;;;;;16.57;48.15;100794.63;4976497;28;20019;-61
2022/11/28 00:06:27;;;;;;;1.90;1.27;;;;;;;16.55;47.50;100785.84;4975621;28;20499;-61
2022/11/28 00:08:53;;;;;;;2.58;1.20;;;;;;;16.55;47.61;100790.41;4975890;28;20077;-61
2022/11/28 00:11:18;;;;;;;2.45;1.48;;;;;;;16.52;47.45;100780.75;4976320;28;20061;-62
2022/11/28 00:13:44;;;;;;;2.25;1.38;;;;;;;16.54;46.90;100784.16;4969376;28;20074;-62
2022/11/28 00:16:17;;;;;;;4.10;1.38;;;;;;;16.53;48.69;100782.44;4964372;28;20038;-61
2022/11/28 00:18:43;;;;;;;1.58;1.10;;;;;;;16.52;48.06;100769.94;4957994;28;20035;-61
2022/11/28 00:21:10;;;;;;;1.42;1.23;;;;;;;16.54;48.60;100776.03;4958554;28;20105;-62
2022/11/28 00:23:35;;;;;;;3.97;1.60;;;;;;;16.56;46.87;100765.88;4971007;28;20098;-60
2022/11/28 00:26:14;;;;;;;1.30;1.20;;;;;;;16.55;48.58;100763.38;4973125;28;20027;-61
2022/11/28 00:28:39;;;;;;;1.30;1.20;;;;;;;16.52;48.20;100759.09;4956425;28;20114;-62
2022/11/28 00:31:05;;;;;;;2.47;1.50;;;;;;;16.46;48.34;100759.78;4975227;28;20041;-61
2022/11/28 00:33:31;;;;;;;3.25;1.50;;;;;;;16.50;47.78;100754.88;4959300;28;20038;-61
2022/11/28 00:36:02;;;;;;;1.58;1.25;;;;;;;16.50;47.57;100771.13;4976166;28;20090;-61
2022/11/28 00:38:28;;;;;;;5.72;1.60;;;;;;;16.49;47.12;100769.41;4974984;28;20078;-61
2022/11/28 00:41:04;;;;;;;3.13;2.00;;;;;;;16.51;47.66;100768.22;4959574;28;20027;-61
2022/11/28 00:43:29;;;;;;;2.28;1.20;;;;;;;16.50;47.76;100761.13;4975119;28;20018;-62
2022/11/28 00:45:55;;;;;;;1.55;1.10;;;;;;;16.53;48.33;100760.81;4975866;28;20019;-61
2022/11/28 00:48:20;;;;;;;3.17;1.48;;;;;;;16.54;47.78;100764.38;4958744;28;20041;-61
2022/11/28 00:50:46;;;;;;;2.78;1.52;;;;;;;16.53;48.24;100760.81;4975103;28;20037;-61
2022/11/28 00:53:11;;;;;;;1.27;0.82;;;;;;;16.56;47.48;100763.19;4975042;28;20034;-61
2022/11/28 00:55:39;;;;;;;2.65;1.55;;;;;;;16.55;47.97;100758.81;4961354;28;20404;-61
2022/11/28 00:58:05;;;;;;;3.05;1.67;;;;;;;16.57;47.63;100748.66;4978627;28;20029;-61
2022/11/28 01:00:31;;;;;;;1.95;1.13;;;;;;;16.60;47.38;100734.81;4978918;28;20027;-62
2022/11/28 01:02:56;;;;;;;1.85;1.17;;;;;;;16.62;47.24;100738.16;4962333;28;20034;-62
2022/11/28 01:05:21;;;;;;;3.20;2.03;;;;;;;16.58;47.77;100750.31;4978198;28;20512;-62
2022/11/28 01:07:47;;;;;;;3.65;1.85;;;;;;;16.54;47.41;100746.28;4980333;28;20026;-61
2022/11/28 01:10:12;;;;;;;3.28;1.27;;;;;;;16.58;46.77;100753.03;4980703;28;20037;-61
2022/11/28 01:12:38;;;;;;;4.43;1.55;;;;;;;16.59;47.39;100748.47;4978650;28;20034;-63
2022/11/28 01:15:06;;;;;;;2.58;1.15;;;;;;;16.59;47.79;100746.63;4948344;28;20043;-62
2022/11/28 01:17:32;;;;;;;2.72;1.55;;;;;;;16.61;47.35;100752.69;4924327;29;20469;-61
2022/11/28 01:19:57;;;;;;;1.95;1.48;;;;;;;16.61;47.97;100752.69;4943424;29;20118;-61
2022/11/28 01:22:22;;;;;;;3.25;1.75;;;;;;;16.62;47.41;100759.81;4943977;29;20114;-61
2022/11/28 01:24:48;;;;;;;4.57;1.25;;;;;;;16.60;47.49;100761.84;4947474;29;20051;-61
2022/11/28 01:27:13;;;;;;;4.97;0.82;;;;;;;16.59;47.98;100768.25;4941239;29;20067;-62
2022/11/28 01:29:38;;;;;;;1.73;1.08;;;;;;;16.57;47.38;100767.59;4949927;29;20089;-62
2022/11/28 01:32:04;;;;;;;2.08;1.00;;;;;;;16.57;47.27;100773.00;4960657;28;20042;-62
2022/11/28 01:34:29;;;;;;;2.10;1.10;;;;;;;16.54;47.50;100778.75;4960970;28;20047;-62
2022/11/28 01:36:55;;;;;;;2.20;1.38;;;;;;;16.51;46.76;100768.22;4961155;29;20388;-62
2022/11/28 01:39:20;;;;;;;1.85;1.00;;;;;;;16.51;47.58;100770.09;4962251;28;20035;-61
2022/11/28 01:41:45;;;;;;;2.20;1.08;;;;;;;16.49;47.42;100777.53;4943676;29;20057;-62
2022/11/28 01:44:11;;;;;;;2.45;1.13;;;;;;;16.47;48.21;100776.84;4959690;29;20035;-62
2022/11/28 01:46:36;;;;;;;4.10;1.00;;;;;;;16.44;46.84;100772.63;4959423;28;20118;-62
2022/11/28 01:49:10;;;;;;;3.33;1.52;;;;;;;16.37;48.43;100779.72;4943788;29;20126;-62
2022/11/28 01:51:36;;;;;;;1.05;0.93;;;;;;;16.35;47.79;100780.91;4958578;29;20110;-62
2022/11/28 01:54:02;;;;;;;3.92;1.45;;;;;;;16.33;47.52;100775.66;4958179;29;20460;-62
2022/11/28 01:56:37;;;;;;;2.50;1.33;;;;;;;16.30;48.80;100776.81;4957557;29;20039;-61
2022/11/28 01:59:06;;;;;;;1.38;0.77;;;;;;;16.25;48.27;100762.97;4957814;29;20126;-62
2022/11/28 02:01:31;;;;;;;3.10;1.20;;;;;;;16.24;48.04;100763.16;4957927;28;20015;-62
2022/11/28 02:03:57;;;;;;;1.80;1.17;;;;;;;16.21;48.06;100758.06;4938398;29;20119;-62
2022/11/28 02:06:23;;;;;;;2.25;1.52;;;;;;;16.17;48.31;100759.41;4938372;28;20055;-63
2022/11/28 02:08:51;;;;;;;3.22;1.35;;;;;;;16.13;48.66;100764.31;4937543;29;20130;-63
2022/11/28 02:11:50;;;;;;;1.80;1.02;;;;;;;16.09;47.89;100751.28;4937984;29;20050;-63
2022/11/28 02:14:34;;;;;;;1.33;0.88;;;;;;;15.97;48.64;100742.66;4939330;28;20039;-64
2022/11/28 02:17:05;;;;;;;1.48;0.90;;;;;;;15.89;49.17;100739.09;4938926;28;20058;-63
2022/11/28 02:20:06;;;;;;;1.73;1.00;;;;;;;15.78;48.33;100732.16;4937665;28;20028;-63
2022/11/28 02:23:15;;;;;;;1.85;1.13;;;;;;;15.72;48.90;100739.06;4915279;28;20549;-64
2022/11/28 02:26:02;;;;;;;3.08;1.00;;;;;;;15.62;49.37;100732.97;4927159;28;20093;-65
2022/11/28 02:28:28;;;;;;;5.20;1.20;;;;;;;15.52;48.20;100734.09;4937171;28;20182;-64
2022/11/28 02:31:04;;;;;;;2.28;1.20;;;;;;;15.45;48.86;100720.38;4939183;29;20047;-63
2022/11/28 02:33:33;;;;;;;2.63;1.10;;;;;;;15.44;48.68;100724.06;4939074;28;20199;-64
2022/11/28 02:36:18;;;;;;;1.67;0.90;;;;;;;15.46;48.40;100732.91;4921608;29;20055;-63
2022/11/28 02:39:06;;;;;;;4.50;1.13;;;;;;;15.44;49.73;100734.03;4952866;29;20420;-64
2022/11/28 02:41:45;;;;;;;1.67;1.02;;;;;;;15.43;49.30;100732.34;4956898;29;20047;-63
2022/11/28 02:44:17;;;;;;;1.65;1.10;;;;;;;15.43;49.82;100738.59;4956848;29;20524;-63
2022/11/28 02:46:48;;;;;;;2.00;1.35;;;;;;;15.44;50.06;100736.72;4957262;28;20027;-63
2022/11/28 02:49:26;;;;;;;1.13;0.80;;;;;;;15.47;49.99;100734.56;4959196;29;20070;-64
2022/11/28 02:51:55;;;;;;;2.95;1.55;;;;;;;15.49;49.33;100731.72;4956941;29;20036;-63
2022/11/28 02:54:20;;;;;;;1.88;1.25;;;;;;;15.49;50.30;100729.88;4957081;29;20055;-64
2022/11/28 02:56:50;;;;;;;1.98;1.27;;;;;;;15.50;49.71;100728.84;4956430;29;20042;-63
2022/11/28 02:59:30;;;;;;;3.83;1.20;;;;;;;15.48;48.83;100730.88;4956399;29;20042;-63
2022/11/28 03:01:56;;;;;;;1.50;1.20;;;;;;;15.46;49.57;100721.22;4955136;29;20117;-63
2022/11/28 03:04:31;;;;;;;1.40;1.25;;;;;;;15.44;49.86;100718.69;4955945;29;20101;-64
2022/11/28 03:07:27;;;;;;;2.03;1.17;;;;;;;15.47;50.24;100723.78;4956818;28;20519;-64
2022/11/28 03:10:20;;;;;;;1.80;1.23;;;;;;;15.43;49.22;100727.81;4957048;28;20106;-63
2022/11/28 03:13:21;;;;;;;4.45;1.60;;;;;;;15.42;49.49;100726.09;4956840;28;20035;-63
2022/11/28 03:16:11;;;;;;;2.10;0.98;;;;;;;15.44;49.16;100724.06;4875690;28;20043;-63
2022/11/28 03:18:54;;;;;;;2.33;1.35;;;;;;;15.45;48.94;100725.78;4955581;29;20037;-63
2022/11/28 03:21:32;;;;;;;1.75;1.50;;;;;;;15.44;50.10;100729.47;4956908;28;20031;-63
2022/11/28 03:24:06;;;;;;;2.97;1.05;;;;;;;15.45;50.43;100720.38;4955598;29;20040;-63
2022/11/28 03:26:51;;;;;;;7.85;1.20;;;;;;;15.44;50.31;100717.81;4955951;29;20038;-64
2022/11/28 03:29:24;;;;;;;1.75;1.38;;;;;;;15.44;48.94;100715.97;4940341;29;20035;-63
2022/11/28 03:32:15;;;;;;;2.90;1.33;;;;;;;15.47;50.39;100712.13;4939674;29;20483;-63
2022/11/28 03:34:45;;;;;;;2.92;1.90;;;;;;;15.46;50.31;100711.31;4928715;28;20042;-63
2022/11/28 03:37:19;;;;;;;1.40;0.90;;;;;;;15.48;50.36;100711.13;4956027;29;20024;-63
2022/11/28 03:39:49;;;;;;;3.15;1.40;;;;;;;15.46;49.57;100700.50;4939871;29;20031;-63
2022/11/28 03:42:22;;;;;;;3.03;1.00;;;;;;;15.46;49.87;100705.91;4939185;29;20057;-63
2022/11/28 03:45:22;;;;;;;4.03;1.25;;;;;;;15.49;48.97;100710.13;4955242;29;20059;-63
2022/11/28 03:47:53;;;;;;;1.30;1.20;;;;;;;15.46;49.59;100713.13;4956518;28;20037;-63
2022/11/28 03:50:22;;;;;;;2.15;1.10;;;;;;;15.45;49.42;100712.28;4938856;29;20039;-63
2022/11/28 03:52:58;;;;;;;1.30;1.10;;;;;;;15.48;49.34;100713.84;4954931;29;20027;-63
2022/11/28 03:55:59;;;;;;;2.13;1.40;;;;;;;15.44;50.28;100707.03;4954987;28;20134;-63
2022/11/28 03:58:38;;;;;;;4.57;1.70;;;;;;;15.49;50.25;100711.00;4862536;29;20032;-63
2022/11/28 04:01:36;;;;;;;1.73;0.82;;;;;;;15.44;49.89;100705.19;4847248;29;20434;-63
2022/11/28 04:04:21;;;;;;;1.73;1.20;;;;;;;15.46;50.17;100708.63;4860952;29;20060;-63
2022/11/28 04:06:47;;;;;;;1.83;1.00;;;;;;;15.46;50.44;100708.63;4863110;29;20033;-64
2022/11/28 04:09:17;;;;;;;1.95;1.15;;;;;;;15.40;49.22;100701.13;4878413;29;20623;-63
2022/11/28 04:11:49;;;;;;;4.03;1.33;;;;;;;15.42;50.42;100709.06;4878661;29;20045;-63
2022/11/28 04:14:34;;;;;;;2.17;1.08;;;;;;;15.40;49.55;100711.94;4878584;29;20037;-63
2022/11/28 04:17:25;;;;;;;3.08;1.05;;;;;;;15.40;50.25;100711.94;4847424;29;20150;-63
2022/11/28 04:20:00;;;;;;;2.33;1.48;;;;;;;15.38;49.50;100713.09;4869235;29;20120;-63
2022/11/28 04:22:30;;;;;;;2.78;1.40;;;;;;;15.37;49.34;100717.66;4862554;29;20033;-63
2022/11/28 04:24:59;;;;;;;5.20;1.67;;;;;;;15.36;50.13;100728.59;4847748;29;20124;-63
2022/11/28 04:27:32;;;;;;;2.13;1.48;;;;;;;15.32;50.81;100713.75;4862783;29;20037;-63
2022/11/28 04:30:00;;;;;;;2.97;1.10;;;;;;;15.32;50.82;100713.75;4850329;29;20069;-63
2022/11/28 04:32:28;;;;;;;2.78;1.48;;;;;;;15.33;50.33;100715.41;4887610;29;20036;-63
2022/11/28 04:35:02;;;;;;;2.85;1.65;;;;;;;15.34;49.77;100726.06;4939374;29;20028;-64
2022/11/28 04:37:29;;;;;;;1.63;1.42;;;;;;;15.33;49.10;100723.50;4923187;28;20074;-63
2022/11/28 04:39:55;;;;;;;1.30;1.20;;;;;;;15.31;50.48;100722.84;4939771;29;20040;-63
2022/11/28 04:42:23;;;;;;;1.58;1.48;;;;;;;15.32;49.56;100730.78;4939591;29;20090;-63
2022/11/28 04:45:08;;;;;;;2.50;1.23;;;;;;;15.31;49.18;100729.09;4939206;29;20099;-63
2022/11/28 04:47:33;;;;;;;3.95;1.50;;;;;;;15.29;50.51;100719.47;4922999;29;20042;-63
2022/11/28 04:49:59;;;;;;;3.83;1.60;;;;;;;15.24;49.58;100725.38;4922893;29;20043;-63
2022/11/28 04:52:39;;;;;;;1.52;1.40;;;;;;;15.20;50.22;100726.69;4938903;29;20049;-64
2022/11/28 04:55:26;;;;;;;3.05;1.50;;;;;;;15.18;50.63;100723.31;4923336;29;20052;-63
2022/11/28 04:57:55;;;;;;;5.57;2.67;;;;;;;15.18;50.24;100719.75;4939589;29;20130;-63
2022/11/28 05:00:21;;;;;;;3.00;1.60;;;;;;;15.18;49.97;100711.66;4938380;29;20040;-63
2022/11/28 05:02:49;;;;;;;6.00;2.03;;;;;;;15.18;50.56;100717.06;4937946;29;20043;-63
2022/11/28 05:05:17;;;;;;;3.30;1.67;;;;;;;15.21;49.63;100714.88;4938289;29;20126;-63
2022/11/28 05:07:43;;;;;;;2.38;1.48;;;;;;;15.22;50.86;100729.19;4939968;29;20110;-63
2022/11/28 05:10:10;;;;;;;2.90;1.60;;;;;;;15.21;50.17;100731.06;4957460;29;20066;-62
2022/11/28 05:12:35;;;;;;;2.83;1.65;;;;;;;15.22;50.38;100721.09;4940910;29;20042;-63
2022/11/28 05:15:01;;;;;;;2.72;1.67;;;;;;;15.23;49.59;100720.97;4940951;29;20031;-63
2022/11/28 05:17:26;;;;;;;7.43;1.92;;;;;;;15.22;49.35;100724.66;4956770;29;20043;-62
2022/11/28 05:19:51;;;;;;;3.53;2.10;;;;;;;15.23;50.60;100720.97;4941033;29;20384;-63
2022/11/28 05:22:17;;;;;;;5.05;1.80;;;;;;;15.23;49.98;100718.25;4941177;29;20015;-62
2022/11/28 05:24:42;;;;;;;3.15;1.77;;;;;;;15.26;49.60;100715.25;4956770;29;20039;-62
2022/11/28 05:27:07;;;;;;;2.85;1.75;;;;;;;15.30;49.48;100716.59;4957245;29;20035;-62
2022/11/28 05:29:33;;;;;;;3.38;1.85;;;;;;;15.32;50.36;100711.91;4956934;29;20106;-62
2022/11/28 05:31:58;;;;;;;2.85;1.67;;;;;;;15.35;49.40;100708.03;4957165;29;20501;-63
2022/11/28 05:34:24;;;;;;;5.03;2.20;;;;;;;15.38;50.64;100708.53;4956979;28;20030;-62
2022/11/28 05:36:49;;;;;;;5.20;2.20;;;;;;;15.42;50.26;100709.91;4957368;29;20031;-62
2022/11/28 05:39:14;;;;;;;4.18;1.65;;;;;;;15.44;49.50;100709.72;4958066;28;20054;-62
2022/11/28 05:41:40;;;;;;;3.05;1.75;;;;;;;15.43;49.46;100708.06;4940939;29;20045;-62
2022/11/28 05:44:05;;;;;;;3.90;1.88;;;;;;;15.44;50.25;100701.63;4957167;29;20027;-62
2022/11/28 05:46:31;;;;;;;4.15;1.67;;;;;;;15.47;49.11;100712.97;4956926;28;20035;-62
2022/11/28 05:48:56;;;;;;;3.95;2.00;;;;;;;15.48;50.72;100705.72;4958527;28;20020;-62
2022/11/28 05:51:21;;;;;;;3.90;1.95;;;;;;;15.47;49.07;100715.69;4940852;29;20039;-62
2022/11/28 05:53:47;;;;;;;5.30;2.47;;;;;;;15.44;49.70;100710.56;4958192;28;20103;-62
2022/11/28 05:56:15;;;;;;;1.48;1.38;;;;;;;15.38;49.00;100710.41;4956652;29;20126;-62
2022/11/28 05:58:41;;;;;;;3.53;1.83;;;;;;;15.41;49.38;100710.91;4940910;28;20034;-62
2022/11/28 06:01:14;;;;;;;4.22;2.00;;;;;;;15.43;50.22;100717.00;4957276;29;20497;-62
2022/11/28 06:03:40;;;;;;;3.55;1.90;;;;;;;15.42;50.16;100704.50;4956830;29;20062;-63
2022/11/28 06:06:10;;;;;;;2.53;1.83;;;;;;;15.43;50.21;100717.00;4956683;29;20039;-62
2022/11/28 06:08:36;;;;;;;4.75;2.20;;;;;;;15.47;50.53;100712.97;4957385;29;20035;-62
2022/11/28 06:11:01;;;;;;;3.72;2.33;;;;;;;15.47;50.32;100718.38;4941042;29;20043;-62
2022/11/28 06:13:27;;;;;;;2.50;1.50;;;;;;;15.47;48.98;100718.38;4940672;28;20027;-62
2022/11/28 06:15:52;;;;;;;3.75;1.92;;;;;;;15.47;50.30;100718.38;4957461;29;20019;-62
2022/11/28 06:18:17;;;;;;;4.72;1.98;;;;;;;15.49;50.51;100724.50;4940606;29;20031;-62
2022/11/28 06:20:43;;;;;;;3.92;2.20;;;;;;;15.50;49.66;100734.25;4957105;29;20058;-62
2022/11/28 06:23:08;;;;;;;4.72;1.70;;;;;;;15.52;49.11;100726.00;4958448;28;20163;-62
2022/11/28 06:25:33;;;;;;;3.25;2.00;;;;;;;15.51;50.08;100735.97;4957297;28;20031;-62
2022/11/28 06:27:59;;;;;;;3.72;2.30;;;;;;;15.53;50.00;100728.53;4957252;29;20031;-62
2022/11/28 06:30:25;;;;;;;3.60;2.15;;;;;;;15.52;49.54;100726.00;4920781;29;20040;-62
2022/11/28 06:32:50;;;;;;;3.20;2.20;;;;;;;15.52;50.04;100732.22;4939568;29;20036;-61
2022/11/28 06:35:15;;;;;;;5.43;1.75;;;;;;;15.54;50.26;100732.94;4938453;29;20036;-62
2022/11/28 06:37:41;;;;;;;4.82;1.92;;;;;;;15.50;48.99;100726.16;4921849;28;20032;-62
2022/11/28 06:40:08;;;;;;;3.33;1.98;;;;;;;15.50;50.39;100723.47;4938818;29;20031;-62
2022/11/28 06:42:35;;;;;;;3.17;1.80;;;;;;;15.50;50.31;100728.84;4921840;29;20035;-62
2022/11/28 06:45:00;;;;;;;4.55;2.13;;;;;;;15.48;49.37;100724.63;4939477;28;20078;-61
2022/11/28 06:47:26;;;;;;;4.03;2.40;;;;;;;15.45;50.29;100723.06;4921860;29;20489;-62
2022/11/28 06:49:51;;;;;;;5.18;1.98;;;;;;;15.48;49.78;100735.44;4949034;28;20123;-61
2022/11/28 06:52:17;;;;;;;4.40;2.50;;;;;;;15.48;50.29;100730.88;4957522;28;20030;-61
2022/11/28 06:54:43;;;;;;;3.67;2.08;;;;;;;15.52;50.14;100731.41;4957705;28;20055;-61
2022/11/28 06:57:08;;;;;;;7.60;2.10;;;;;;;15.55;49.17;100737.31;4956321;29;20496;-61
2022/11/28 06:59:34;;;;;;;3.80;1.80;;;;;;;15.60;50.13;100739.53;4940105;29;20032;-61
2022/11/28 07:02:01;;;;;;;3.67;2.08;;;;;;;15.59;49.09;100732.44;4956177;28;20042;-61
2022/11/28 07:04:27;;;;;;;6.03;2.30;;;;;;;15.63;50.14;100737.31;4940264;28;20023;-61
2022/11/28 07:06:52;;;;;;;4.55;2.95;;;;;;;15.64;48.85;100746.28;4955939;29;20503;-62
2022/11/28 07:09:17;;;;;;;4.72;2.42;;;;;;;15.66;49.45;100745.09;4942334;29;20051;-61
2022/11/28 07:11:43;;;;;;;5.60;2.85;;;;;;;15.63;49.53;100734.63;4920899;29;20063;-63
2022/11/28 07:14:09;;;;;;;3.00;1.85;;;;;;;15.63;50.31;100731.94;4937063;29;20051;-63
2022/11/28 07:16:35;;;;;;;5.50;2.78;;;;;;;15.60;48.66;100740.38;4936438;28;20098;-63
2022/11/28 07:19:00;;;;;;;3.30;1.70;;;;;;;15.56;49.44;100733.59;4936907;29;20051;-63
2022/11/28 07:21:26;;;;;;;3.30;1.83;;;;;;;15.55;50.39;100742.72;4937419;28;20456;-61
2022/11/28 07:23:52;;;;;;;5.97;2.50;;;;;;;15.53;50.36;100744.72;4920497;29;20039;-60
2022/11/28 07:26:18;;;;;;;5.97;2.17;;;;;;;15.51;49.18;100754.00;4921036;29;20036;-61
2022/11/28 07:28:44;;;;;;;6.22;1.95;;;;;;;15.51;49.52;100754.84;4921279;28;20043;-61
2022/11/28 07:31:12;;;;;;;3.35;1.80;;;;;;;15.49;49.57;100751.47;4921058;29;20062;-61
2022/11/28 07:33:39;;;;;;;2.13;1.85;;;;;;;15.49;49.62;100751.47;4921104;29;20065;-61
2022/11/28 07:36:09;;;;;;;4.45;2.05;;;;;;;15.50;49.70;100742.34;4921220;29;20099;-61
2022/11/28 07:38:34;;;;;;;3.70;2.03;;;;;;;15.50;49.27;100752.31;4936344;29;20043;-62
2022/11/28 07:41:08;;;;;;;4.68;2.67;;;;;;;15.52;50.54;100753.00;4920616;29;20085;-62
2022/11/28 07:43:34;;;;;;;4.30;2.00;;;;;;;15.49;49.60;100754.19;4920701;28;20028;-62
2022/11/28 07:46:03;;;;;;;9.00;2.40;;;;;;;15.49;49.56;100764.13;4920999;29;20233;-61
2022/11/28 07:48:28;;;;;;;5.18;2.60;;;;;;;15.49;50.19;100764.97;4935927;29;20078;-61
2022/11/28 07:50:54;;;;;;;2.95;1.83;;;;;;;15.50;50.01;100771.19;4920037;29;20028;-63
2022/11/28 07:53:19;;;;;;;4.43;2.20;;;;;;;15.49;49.90;100764.13;4936921;28;20040;-62
2022/11/28 07:55:44;;;;;;;4.70;2.28;;;;;;;15.49;50.60;100773.06;4919115;28;20438;-61
2022/11/28 07:58:10;;;;;;;4.28;2.17;;;;;;;15.44;50.35;100772.66;4936470;29;20122;-62
2022/11/28 08:00:35;;;;;;;7.20;2.22;;;;;;;15.41;49.91;100770.28;4935050;29;20032;-64
2022/11/28 08:03:00;;;;;;;6.03;3.05;;;;;;;15.37;49.91;100777.03;4937109;29;20405;-63
2022/11/28 08:05:26;;;;;;;7.97;2.60;;;;;;;15.35;50.86;100768.25;4938723;29;20035;-64
2022/11/28 08:07:51;;;;;;;2.90;1.65;;;;;;;15.34;50.25;100777.34;4923514;29;20091;-63
2022/11/28 08:10:17;;;;;;;8.63;2.50;;;;;;;15.33;50.75;100775.66;4939205;29;20032;-64
2022/11/28 08:12:43;;;;;;;11.30;2.00;;;;;;;15.34;50.67;100774.66;4922493;29;20035;-63
2022/11/28 08:15:09;;;;;;;3.40;1.77;;;;;;;15.27;49.89;100770.88;4938578;29;20036;-64
2022/11/28 08:17:34;;;;;;;4.75;2.58;;;;;;;15.27;49.84;100783.56;4949660;28;20059;-64
2022/11/28 08:20:00;;;;;;;3.22;1.70;;;;;;;15.23;51.25;100777.63;4958680;28;20031;-64
2022/11/28 08:22:25;;;;;;;4.07;2.33;;;;;;;15.22;50.79;100777.78;4957412;28;20366;-66
2022/11/28 08:24:50;;;;;;;4.95;2.30;;;;;;;15.24;50.61;100781.19;4941815;29;20037;-66
2022/11/28 08:27:16;;;;;;;4.20;2.35;;;;;;;15.21;51.21;100782.34;4941332;29;20043;-67
2022/11/28 08:29:41;;;;;;;5.90;2.33;;;;;;;15.19;50.65;100778.94;4925328;29;20540;-67
2022/11/28 08:32:07;;;;;;;4.40;2.00;;;;;;;15.11;51.27;100774.34;4957121;29;20078;-66
2022/11/28 08:34:32;;;;;;;7.53;2.95;;;;;;;15.13;50.85;100779.59;4925245;28;20056;-67
2022/11/28 08:36:57;;;;;;;3.63;1.85;;;;;;;15.12;50.47;100777.91;4958666;29;20378;-67
2022/11/28 08:39:23;;;;;;;2.55;2.03;;;;;;;15.12;51.14;100783.31;4958535;28;20039;-67
2022/11/28 08:41:48;;;;;;;2.35;2.00;;;;;;;15.09;51.80;100783.63;4958488;28;20098;-68
2022/11/28 08:44:14;;;;;;;4.28;2.80;;;;;;;15.13;51.38;100785.00;4957376;29;20110;-67
2022/11/28 08:46:40;;;;;;;5.03;1.85;;;;;;;15.16;51.67;100790.91;4957092;28;20031;-68
2022/11/28 08:49:06;;;;;;;2.92;1.95;;;;;;;15.15;51.87;100789.22;4957276;29;20027;-67
2022/11/28 08:51:32;;;;;;;3.55;2.00;;;;;;;15.16;51.51;100781.97;4956738;29;20501;-69
2022/11/28 08:53:58;;;;;;;3.50;2.00;;;;;;;15.14;51.34;100782.13;4940801;29;20051;-68
2022/11/28 08:56:23;;;;;;;3.80;2.17;;;;;;;15.13;52.03;100776.91;4956546;29;20047;-67
2022/11/28 08:58:49;;;;;;;4.72;2.10;;;;;;;15.17;52.26;100791.75;4940700;29;20035;-68
2022/11/28 09:01:19;;;;;;;3.38;1.88;;;;;;;15.19;51.30;100788.91;4940995;29;20463;-67
2022/11/28 09:03:45;;;;;;;6.32;2.15;;;;;;;15.19;50.85;100789.72;4957809;28;20038;-67
2022/11/28 09:06:11;;;;;;;4.57;2.00;;;;;;;15.21;52.11;100793.16;4956402;29;20031;-67
2022/11/28 09:08:36;;;;;;;3.03;1.88;;;;;;;15.24;52.35;100797.38;4940466;29;20041;-66
2022/11/28 09:11:02;;;;;;;4.55;1.90;;;;;;;15.24;52.61;100794.66;4940220;29;20039;-66
2022/11/28 09:13:27;;;;;;;3.35;2.08;;;;;;;15.27;52.29;100800.56;4957494;28;20029;-66
2022/11/28 09:15:53;;;;;;;2.78;2.28;;;;;;;15.30;51.60;100792.16;4940198;29;20401;-65
2022/11/28 09:18:19;;;;;;;3.42;2.22;;;;;;;15.34;51.28;100803.50;4956380;29;20043;-65
2022/11/28 09:20:44;;;;;;;3.88;2.00;;;;;;;15.37;52.36;100798.63;4956249;29;20043;-64
2022/11/28 09:23:09;;;;;;;2.50;1.90;;;;;;;15.43;51.49;100808.78;4940223;29;20090;-64
2022/11/28 09:25:36;;;;;;;3.30;2.30;;;;;;;15.45;51.50;100801.34;4957623;28;20027;-64
2022/11/28 09:28:02;;;;;;;5.00;2.42;;;;;;;15.50;52.59;100809.84;4940513;29;20043;-64
2022/11/28 09:30:27;;;;;;;6.80;2.78;;;;;;;15.52;52.58;100813.22;4957232;28;20035;-63
2022/11/28 09:32:53;;;;;;;2.35;2.10;;;;;;;15.53;50.96;100811.38;4957181;28;20074;-63
2022/11/28 09:35:18;;;;;;;2.33;1.73;;;;;;;15.53;51.38;100814.94;4939977;29;20035;-63
2022/11/28 09:37:43;;;;;;;4.00;2.30;;;;;;;15.55;52.39;100807.50;4956111;28;20042;-63
2022/11/28 09:40:17;;;;;;;4.55;2.78;;;;;;;15.54;51.94;100813.09;4956310;29;20031;-62
2022/11/28 09:42:43;;;;;;;3.85;2.30;;;;;;;15.57;50.96;100813.63;4940175;29;20130;-63
2022/11/28 09:45:20;;;;;;;4.57;2.67;;;;;;;15.58;51.91;100817.13;4956030;29;20494;-62
2022/11/28 09:47:49;;;;;;;4.03;2.50;;;;;;;15.59;51.08;100817.00;4940171;29;20126;-62
2022/11/28 09:50:20;;;;;;;2.75;2.10;;;;;;;15.63;52.50;100814.81;4939669;29;20062;-65
2022/11/28 09:53:15;;;;;;;5.03;2.30;;;;;;;15.67;52.28;100810.75;4955707;28;20086;-62
2022/11/28 09:55:41;;;;;;;4.50;2.28;;;;;;;15.66;52.40;100814.50;4955601;28;20063;-63
2022/11/28 09:58:35;;;;;;;4.13;2.55;;;;;;;15.63;52.59;100804.84;4956191;29;20023;-62
2022/11/28 10:01:16;;;;;;;4.53;2.13;;;;;;;15.59;52.11;100803.47;4948437;29;20705;-62
2022/11/28 10:03:57;;;;;;;3.22;2.08;;;;;;;15.60;52.17;100801.63;4956618;28;20031;-62
2022/11/28 10:06:56;;;;;;;5.20;2.30;;;;;;;15.65;52.74;100807.38;4955616;29;20130;-62
2022/11/28 10:09:41;;;;;;;3.88;2.33;;;;;;;15.68;52.44;100796.28;4970729;28;20042;-62
2022/11/28 10:12:18;;;;;;;3.28;1.60;;;;;;;15.72;51.21;100803.03;4974690;28;20043;-62
2022/11/28 10:15:29;;;;;;;2.78;1.60;;;;;;;15.78;52.18;100801.53;4974615;28;20500;-61
2022/11/28 10:18:08;;;;;;;2.60;1.80;;;;;;;15.86;52.15;100804.25;4973848;28;20043;-62
2022/11/28 10:20:40;;;;;;;6.82;2.03;;;;;;;15.92;51.13;100803.59;4974325;28;20035;-62
2022/11/28 10:23:30;;;;;;;5.63;2.20;;;;;;;15.98;51.17;100797.53;4974078;28;20054;-61
2022/11/28 10:25:58;;;;;;;1.95;1.70;;;;;;;16.05;51.03;100804.00;4974321;28;20070;-61
2022/11/28 10:28:46;;;;;;;4.88;1.95;;;;;;;16.09;51.23;100805.34;4957965;28;20035;-61
2022/11/28 10:31:25;;;;;;;3.42;1.83;;;;;;;16.12;51.65;100810.41;4963948;28;20118;-61
2022/11/28 10:34:02;;;;;;;3.95;2.17;;;;;;;16.13;51.64;100807.56;4946045;28;20083;-62
2022/11/28 10:36:50;;;;;;;2.67;1.90;;;;;;;16.12;52.71;100805.84;4937104;29;20512;-61
2022/11/28 10:39:16;;;;;;;5.68;2.25;;;;;;;16.14;52.57;100811.09;4936910;29;20082;-62
2022/11/28 10:41:44;;;;;;;2.22;1.75;;;;;;;16.16;51.85;100814.50;4935680;29;20498;-62
2022/11/28 10:44:17;;;;;;;2.53;1.50;;;;;;;16.16;52.15;100811.78;4935458;29;20040;-62
2022/11/28 10:47:06;;;;;;;4.63;2.13;;;;;;;16.18;52.37;100816.00;5107829;27;1299996;-63
2022/11/28 10:49:49;;;;;;;4.20;2.00;;;;;;;16.22;52.30;100821.91;5089264;28;20493;-62
2022/11/28 10:52:23;;;;;;;5.95;1.77;;;;;;;16.26;52.38;100823.28;5098278;28;20150;-62
2022/11/28 10:55:03;;;;;;;5.28;1.73;;;;;;;16.27;52.86;100825.00;5109662;28;20036;-62
2022/11/28 10:57:48;;;;;;;4.63;1.75;;;;;;;16.28;51.90;100826.66;5109674;28;20040;-62
2022/11/28 11:00:14;;;;;;;3.10;1.40;;;;;;;16.26;52.31;100818.72;5109807;28;20036;-62
2022/11/28 11:03:09;;;;;;;2.78;2.00;;;;;;;16.28;51.35;100821.25;5111048;28;20032;-62
2022/11/28 11:05:35;;;;;;;2.33;1.63;;;;;;;16.31;52.07;100826.31;5087962;28;20095;-63
2022/11/28 11:08:24;;;;;;;3.42;1.83;;;;;;;16.31;52.46;100820.91;5109889;28;20484;-64
2022/11/28 11:11:03;;;;;;;2.67;1.52;;;;;;;16.27;52.37;100819.59;5109539;28;20028;-63
2022/11/28 11:13:31;;;;;;;3.05;1.30;;;;;;;16.28;52.52;100822.09;5109593;27;20027;-64
2022/11/28 11:16:08;;;;;;;1.20;1.10;;;;;;;16.31;52.75;100826.31;5093016;28;20042;-62
2022/11/28 11:18:36;;;;;;;1.25;1.08;;;;;;;16.31;52.64;100824.47;5109411;28;20036;-61
2022/11/28 11:21:13;;;;;;;1.48;1.17;;;;;;;16.34;51.47;100820.59;5092407;28;20035;-64
2022/11/28 11:23:38;;;;;;;1.35;1.17;;;;;;;16.33;51.79;100817.03;5110787;27;20460;-64
2022/11/28 11:26:04;;;;;;;1.88;1.17;;;;;;;16.35;52.33;100822.28;5110601;27;20051;-63
2022/11/28 11:28:49;;;;;;;4.78;1.17;;;;;;;16.36;51.78;100820.44;5108960;27;20105;-63
2022/11/28 11:31:24;;;;;;;2.42;1.30;;;;;;;16.36;52.45;100810.44;5109471;28;20026;-63
2022/11/28 11:33:52;;;;;;;1.30;1.20;;;;;;;16.40;52.45;100814.53;5110478;28;20043;-63
2022/11/28 11:36:35;;;;;;;3.38;1.40;;;;;;;16.43;52.57;100822.31;5108903;28;20032;-62
2022/11/28 11:39:06;;;;;;;3.63;1.25;;;;;;;16.44;52.27;100821.31;5108837;28;20446;-63
2022/11/28 11:41:33;;;;;;;2.60;1.40;;;;;;;16.47;52.29;100814.72;5109034;28;20484;-62